sensor_id;sensor_type;location;lat;lon;timestamp;temperature;humidity
80958;DHT22;70419;42.700;23.316;2023-06-14T00:01:14;18.70;74.90
80958;DHT22;70419;42.700;23.316;2023-06-14T00:03:39;18.70;74.90
80958;DHT22;70419;42.700;23.316;2023-06-14T00:06:05;18.70;74.50
80958;DHT22;70419;42.700;23.316;2023-06-14T00:08:31;18.60;75.10
80958;DHT22;70419;42.700;23.316;2023-06-14T00:10:57;18.50;75.00
80958;DHT22;70419;42.700;23.316;2023-06-14T00:13:22;18.50;74.80
80958;DHT22;70419;42.700;23.316;2023-06-14T00:15:48;18.50;75.10
80958;DHT22;70419;42.700;23.316;2023-06-14T00:18:15;18.50;74.70
80958;DHT22;70419;42.700;23.316;2023-06-14T00:20:43;18.40;75.00
80958;DHT22;70419;42.700;23.316;2023-06-14T00:23:09;18.40;75.20
80958;DHT22;70419;42.700;23.316;2023-06-14T00:25:35;18.40;75.60
80958;DHT22;70419;42.700;23.316;2023-06-14T00:28:01;18.50;76.40
80958;DHT22;70419;42.700;23.316;2023-06-14T00:30:28;18.50;75.40
80958;DHT22;70419;42.700;23.316;2023-06-14T00:32:56;18.50;75.50
80958;DHT22;70419;42.700;23.316;2023-06-14T00:35:21;18.40;75.40
80958;DHT22;70419;42.700;23.316;2023-06-14T00:37:47;18.50;75.70
80958;DHT22;70419;42.700;23.316;2023-06-14T00:40:13;18.50;74.40
80958;DHT22;70419;42.700;23.316;2023-06-14T00:42:39;18.50;75.30
80958;DHT22;70419;42.700;23.316;2023-06-14T00:45:05;18.50;75.40
80958;DHT22;70419;42.700;23.316;2023-06-14T00:47:31;18.60;74.60
80958;DHT22;70419;42.700;23.316;2023-06-14T00:49:57;18.60;75.00
80958;DHT22;70419;42.700;23.316;2023-06-14T00:52:24;18.50;75.10
80958;DHT22;70419;42.700;23.316;2023-06-14T00:54:51;18.50;75.30
80958;DHT22;70419;42.700;23.316;2023-06-14T00:57:17;18.50;74.80
80958;DHT22;70419;42.700;23.316;2023-06-14T00:59:45;18.40;75.50
80958;DHT22;70419;42.700;23.316;2023-06-14T01:02:12;18.40;75.50
80958;DHT22;70419;42.700;23.316;2023-06-14T01:04:39;18.40;75.50
80958;DHT22;70419;42.700;23.316;2023-06-14T01:10:08;18.40;75.70
80958;DHT22;70419;42.700;23.316;2023-06-14T01:15:16;18.50;75.40
80958;DHT22;70419;42.700;23.316;2023-06-14T01:17:45;18.50;74.70
80958;DHT22;70419;42.700;23.316;2023-06-14T01:20:12;18.50;75.30
80958;DHT22;70419;42.700;23.316;2023-06-14T01:22:53;18.40;75.30
80958;DHT22;70419;42.700;23.316;2023-06-14T01:25:20;18.40;75.50
80958;DHT22;70419;42.700;23.316;2023-06-14T01:27:48;18.40;74.70
80958;DHT22;70419;42.700;23.316;2023-06-14T01:30:15;18.50;75.30
80958;DHT22;70419;42.700;23.316;2023-06-14T01:32:42;18.50;76.30
80958;DHT22;70419;42.700;23.316;2023-06-14T01:35:09;18.50;75.30
80958;DHT22;70419;42.700;23.316;2023-06-14T01:37:35;18.50;75.00
80958;DHT22;70419;42.700;23.316;2023-06-14T01:40:04;18.50;74.60
80958;DHT22;70419;42.700;23.316;2023-06-14T01:42:34;18.50;74.60
80958;DHT22;70419;42.700;23.316;2023-06-14T01:45:02;18.40;74.70
80958;DHT22;70419;42.700;23.316;2023-06-14T01:47:31;18.50;74.80
80958;DHT22;70419;42.700;23.316;2023-06-14T01:49:57;18.40;75.00
80958;DHT22;70419;42.700;23.316;2023-06-14T01:52:24;18.40;74.80
80958;DHT22;70419;42.700;23.316;2023-06-14T01:54:53;18.50;74.60
80958;DHT22;70419;42.700;23.316;2023-06-14T01:57:19;18.40;74.50
80958;DHT22;70419;42.700;23.316;2023-06-14T01:59:47;18.50;74.40
80958;DHT22;70419;42.700;23.316;2023-06-14T02:02:15;18.50;74.40
80958;DHT22;70419;42.700;23.316;2023-06-14T02:04:41;18.50;74.50
80958;DHT22;70419;42.700;23.316;2023-06-14T02:07:07;18.40;74.50
80958;DHT22;70419;42.700;23.316;2023-06-14T02:09:34;18.40;74.60
80958;DHT22;70419;42.700;23.316;2023-06-14T02:12:01;18.40;74.70
80958;DHT22;70419;42.700;23.316;2023-06-14T02:14:27;18.50;74.60
80958;DHT22;70419;42.700;23.316;2023-06-14T02:16:54;18.50;74.50
80958;DHT22;70419;42.700;23.316;2023-06-14T02:19:20;18.50;74.60
80958;DHT22;70419;42.700;23.316;2023-06-14T02:21:47;18.50;74.70
80958;DHT22;70419;42.700;23.316;2023-06-14T02:24:14;18.50;74.70
80958;DHT22;70419;42.700;23.316;2023-06-14T02:26:40;18.50;74.50
80958;DHT22;70419;42.700;23.316;2023-06-14T02:29:08;18.60;74.50
80958;DHT22;70419;42.700;23.316;2023-06-14T02:31:37;18.50;74.30
80958;DHT22;70419;42.700;23.316;2023-06-14T02:34:03;18.50;74.10
80958;DHT22;70419;42.700;23.316;2023-06-14T02:36:29;18.50;74.10
80958;DHT22;70419;42.700;23.316;2023-06-14T02:38:57;18.50;74.50
80958;DHT22;70419;42.700;23.316;2023-06-14T02:41:24;18.50;73.70
80958;DHT22;70419;42.700;23.316;2023-06-14T02:43:51;18.30;74.70
80958;DHT22;70419;42.700;23.316;2023-06-14T02:46:18;18.30;74.40
80958;DHT22;70419;42.700;23.316;2023-06-14T02:48:44;18.30;74.60
80958;DHT22;70419;42.700;23.316;2023-06-14T02:51:10;18.30;74.70
80958;DHT22;70419;42.700;23.316;2023-06-14T02:53:38;18.30;75.00
80958;DHT22;70419;42.700;23.316;2023-06-14T02:56:04;18.10;75.10
80958;DHT22;70419;42.700;23.316;2023-06-14T02:58:30;18.00;75.20
80958;DHT22;70419;42.700;23.316;2023-06-14T03:00:56;17.90;75.50
80958;DHT22;70419;42.700;23.316;2023-06-14T03:03:22;17.90;76.30
80958;DHT22;70419;42.700;23.316;2023-06-14T03:05:50;17.80;75.40
80958;DHT22;70419;42.700;23.316;2023-06-14T03:08:17;17.70;76.70
80958;DHT22;70419;42.700;23.316;2023-06-14T03:10:48;17.60;77.20
80958;DHT22;70419;42.700;23.316;2023-06-14T03:13:15;17.60;76.80
80958;DHT22;70419;42.700;23.316;2023-06-14T03:15:45;17.50;77.20
80958;DHT22;70419;42.700;23.316;2023-06-14T03:18:11;17.60;77.30
80958;DHT22;70419;42.700;23.316;2023-06-14T03:20:40;17.60;77.50
80958;DHT22;70419;42.700;23.316;2023-06-14T03:23:08;17.60;77.60
80958;DHT22;70419;42.700;23.316;2023-06-14T03:25:34;17.60;77.40
80958;DHT22;70419;42.700;23.316;2023-06-14T03:28:10;17.60;77.40
80958;DHT22;70419;42.700;23.316;2023-06-14T03:30:35;17.60;77.60
80958;DHT22;70419;42.700;23.316;2023-06-14T03:33:01;17.70;77.50
80958;DHT22;70419;42.700;23.316;2023-06-14T03:35:28;17.80;78.30
80958;DHT22;70419;42.700;23.316;2023-06-14T03:37:54;18.00;77.00
80958;DHT22;70419;42.700;23.316;2023-06-14T03:40:21;18.10;76.20
80958;DHT22;70419;42.700;23.316;2023-06-14T03:42:47;18.20;75.50
80958;DHT22;70419;42.700;23.316;2023-06-14T03:45:13;18.40;75.20
80958;DHT22;70419;42.700;23.316;2023-06-14T03:47:38;18.50;74.70
80958;DHT22;70419;42.700;23.316;2023-06-14T03:50:05;18.50;74.60
80958;DHT22;70419;42.700;23.316;2023-06-14T03:52:31;18.60;74.10
80958;DHT22;70419;42.700;23.316;2023-06-14T03:54:58;18.70;73.70
80958;DHT22;70419;42.700;23.316;2023-06-14T03:57:26;18.70;73.10
80958;DHT22;70419;42.700;23.316;2023-06-14T03:59:51;18.60;73.10
80958;DHT22;70419;42.700;23.316;2023-06-14T04:02:18;18.60;72.30
80958;DHT22;70419;42.700;23.316;2023-06-14T04:04:44;18.60;73.00
80958;DHT22;70419;42.700;23.316;2023-06-14T04:07:11;18.70;73.20
80958;DHT22;70419;42.700;23.316;2023-06-14T04:09:38;18.80;72.70
80958;DHT22;70419;42.700;23.316;2023-06-14T04:12:05;18.90;72.20
80958;DHT22;70419;42.700;23.316;2023-06-14T04:14:35;19.00;71.80
80958;DHT22;70419;42.700;23.316;2023-06-14T04:17:02;19.10;70.90
80958;DHT22;70419;42.700;23.316;2023-06-14T04:19:28;19.10;71.30
80958;DHT22;70419;42.700;23.316;2023-06-14T04:21:55;19.20;71.20
80958;DHT22;70419;42.700;23.316;2023-06-14T04:24:21;19.00;71.80
80958;DHT22;70419;42.700;23.316;2023-06-14T04:26:49;19.00;72.00
80958;DHT22;70419;42.700;23.316;2023-06-14T04:29:15;19.00;72.00
80958;DHT22;70419;42.700;23.316;2023-06-14T04:31:46;19.00;71.10
80958;DHT22;70419;42.700;23.316;2023-06-14T04:34:12;19.10;72.50
80958;DHT22;70419;42.700;23.316;2023-06-14T04:36:44;19.00;71.20
80958;DHT22;70419;42.700;23.316;2023-06-14T04:39:23;18.80;71.40
80958;DHT22;70419;42.700;23.316;2023-06-14T04:41:49;18.70;71.30
80958;DHT22;70419;42.700;23.316;2023-06-14T04:44:26;18.60;72.60
80958;DHT22;70419;42.700;23.316;2023-06-14T04:46:56;18.50;72.90
80958;DHT22;70419;42.700;23.316;2023-06-14T04:49:24;18.60;72.90
80958;DHT22;70419;42.700;23.316;2023-06-14T04:51:52;18.70;72.30
80958;DHT22;70419;42.700;23.316;2023-06-14T04:54:24;18.70;72.20
80958;DHT22;70419;42.700;23.316;2023-06-14T04:56:51;18.70;72.30
80958;DHT22;70419;42.700;23.316;2023-06-14T04:59:19;18.80;72.10
80958;DHT22;70419;42.700;23.316;2023-06-14T05:01:45;19.00;71.50
80958;DHT22;70419;42.700;23.316;2023-06-14T05:04:18;19.10;69.60
80958;DHT22;70419;42.700;23.316;2023-06-14T05:06:45;19.30;70.70
80958;DHT22;70419;42.700;23.316;2023-06-14T05:09:15;19.50;69.80
80958;DHT22;70419;42.700;23.316;2023-06-14T05:11:43;19.80;68.80
80958;DHT22;70419;42.700;23.316;2023-06-14T05:14:13;19.90;68.20
80958;DHT22;70419;42.700;23.316;2023-06-14T05:16:40;20.20;67.50
80958;DHT22;70419;42.700;23.316;2023-06-14T05:19:07;20.40;66.60
80958;DHT22;70419;42.700;23.316;2023-06-14T05:21:33;20.70;65.80
80958;DHT22;70419;42.700;23.316;2023-06-14T05:24:00;20.90;64.50
80958;DHT22;70419;42.700;23.316;2023-06-14T05:26:26;21.20;63.50
80958;DHT22;70419;42.700;23.316;2023-06-14T05:28:57;21.60;63.30
80958;DHT22;70419;42.700;23.316;2023-06-14T05:31:26;22.00;62.10
80958;DHT22;70419;42.700;23.316;2023-06-14T05:33:55;22.50;60.50
80958;DHT22;70419;42.700;23.316;2023-06-14T05:36:21;22.80;59.20
80958;DHT22;70419;42.700;23.316;2023-06-14T05:38:48;23.00;58.00
80958;DHT22;70419;42.700;23.316;2023-06-14T05:41:14;23.10;57.90
80958;DHT22;70419;42.700;23.316;2023-06-14T05:43:40;23.20;57.20
80958;DHT22;70419;42.700;23.316;2023-06-14T05:46:06;23.40;57.20
80958;DHT22;70419;42.700;23.316;2023-06-14T05:48:32;23.50;56.80
80958;DHT22;70419;42.700;23.316;2023-06-14T05:51:01;23.50;56.40
80958;DHT22;70419;42.700;23.316;2023-06-14T05:53:27;23.60;56.20
80958;DHT22;70419;42.700;23.316;2023-06-14T05:55:52;23.70;55.90
80958;DHT22;70419;42.700;23.316;2023-06-14T05:58:29;23.80;56.20
80958;DHT22;70419;42.700;23.316;2023-06-14T06:00:55;23.90;55.70
80958;DHT22;70419;42.700;23.316;2023-06-14T06:03:21;24.00;55.10
80958;DHT22;70419;42.700;23.316;2023-06-14T06:05:49;24.00;55.10
80958;DHT22;70419;42.700;23.316;2023-06-14T06:08:14;24.10;55.30
80958;DHT22;70419;42.700;23.316;2023-06-14T06:10:42;24.00;55.30
80958;DHT22;70419;42.700;23.316;2023-06-14T06:13:10;24.00;54.90
80958;DHT22;70419;42.700;23.316;2023-06-14T06:15:36;24.00;54.40
80958;DHT22;70419;42.700;23.316;2023-06-14T06:18:03;24.10;54.30
80958;DHT22;70419;42.700;23.316;2023-06-14T06:20:29;24.00;54.20
80958;DHT22;70419;42.700;23.316;2023-06-14T06:23:02;23.90;54.60
80958;DHT22;70419;42.700;23.316;2023-06-14T06:25:32;23.90;55.20
80958;DHT22;70419;42.700;23.316;2023-06-14T06:28:06;23.80;55.40
80958;DHT22;70419;42.700;23.316;2023-06-14T06:30:35;23.80;55.50
80958;DHT22;70419;42.700;23.316;2023-06-14T06:33:02;23.80;55.30
80958;DHT22;70419;42.700;23.316;2023-06-14T06:35:30;23.90;55.10
80958;DHT22;70419;42.700;23.316;2023-06-14T06:38:01;24.20;54.60
80958;DHT22;70419;42.700;23.316;2023-06-14T06:40:27;24.50;53.80
80958;DHT22;70419;42.700;23.316;2023-06-14T06:42:53;24.70;53.00
80958;DHT22;70419;42.700;23.316;2023-06-14T06:45:20;24.80;52.00
80958;DHT22;70419;42.700;23.316;2023-06-14T06:47:46;24.90;52.00
80958;DHT22;70419;42.700;23.316;2023-06-14T06:50:15;25.20;51.50
80958;DHT22;70419;42.700;23.316;2023-06-14T06:52:44;25.40;51.00
80958;DHT22;70419;42.700;23.316;2023-06-14T06:55:13;25.60;50.60
80958;DHT22;70419;42.700;23.316;2023-06-14T06:57:39;25.90;49.90
80958;DHT22;70419;42.700;23.316;2023-06-14T07:00:06;25.80;49.40
80958;DHT22;70419;42.700;23.316;2023-06-14T07:02:36;25.80;49.90
80958;DHT22;70419;42.700;23.316;2023-06-14T07:05:21;25.80;50.70
80958;DHT22;70419;42.700;23.316;2023-06-14T07:07:47;25.70;50.30
80958;DHT22;70419;42.700;23.316;2023-06-14T07:10:14;26.00;49.70
80958;DHT22;70419;42.700;23.316;2023-06-14T07:12:40;26.40;49.30
80958;DHT22;70419;42.700;23.316;2023-06-14T07:15:12;26.90;47.40
80958;DHT22;70419;42.700;23.316;2023-06-14T07:17:38;27.40;46.70
80958;DHT22;70419;42.700;23.316;2023-06-14T07:20:08;27.70;45.70
80958;DHT22;70419;42.700;23.316;2023-06-14T07:22:41;28.00;45.70
80958;DHT22;70419;42.700;23.316;2023-06-14T07:25:11;28.30;43.90
80958;DHT22;70419;42.700;23.316;2023-06-14T07:27:45;28.70;43.60
80958;DHT22;70419;42.700;23.316;2023-06-14T07:30:14;29.20;42.90
80958;DHT22;70419;42.700;23.316;2023-06-14T07:32:41;29.60;42.00
80958;DHT22;70419;42.700;23.316;2023-06-14T07:35:09;29.80;40.90
80958;DHT22;70419;42.700;23.316;2023-06-14T07:37:35;29.70;41.00
80958;DHT22;70419;42.700;23.316;2023-06-14T07:40:02;29.60;40.30
80958;DHT22;70419;42.700;23.316;2023-06-14T07:42:36;29.60;40.10
80958;DHT22;70419;42.700;23.316;2023-06-14T07:45:06;29.60;40.80
80958;DHT22;70419;42.700;23.316;2023-06-14T07:47:34;29.70;40.60
80958;DHT22;70419;42.700;23.316;2023-06-14T07:50:01;30.00;40.80
80958;DHT22;70419;42.700;23.316;2023-06-14T07:52:33;30.40;40.00
80958;DHT22;70419;42.700;23.316;2023-06-14T07:55:06;30.70;39.20
80958;DHT22;70419;42.700;23.316;2023-06-14T07:57:34;30.80;38.70
80958;DHT22;70419;42.700;23.316;2023-06-14T08:00:24;30.70;38.20
80958;DHT22;70419;42.700;23.316;2023-06-14T08:02:55;30.70;37.60
80958;DHT22;70419;42.700;23.316;2023-06-14T08:05:28;30.70;37.60
80958;DHT22;70419;42.700;23.316;2023-06-14T08:07:58;30.70;37.70
80958;DHT22;70419;42.700;23.316;2023-06-14T08:10:31;30.50;38.00
80958;DHT22;70419;42.700;23.316;2023-06-14T08:12:57;30.30;38.10
80958;DHT22;70419;42.700;23.316;2023-06-14T08:15:23;30.20;37.70
80958;DHT22;70419;42.700;23.316;2023-06-14T08:17:50;30.20;37.80
80958;DHT22;70419;42.700;23.316;2023-06-14T08:20:16;30.30;38.90
80958;DHT22;70419;42.700;23.316;2023-06-14T08:22:44;30.30;37.50
80958;DHT22;70419;42.700;23.316;2023-06-14T08:25:11;30.60;37.00
80958;DHT22;70419;42.700;23.316;2023-06-14T08:27:37;30.70;37.10
80958;DHT22;70419;42.700;23.316;2023-06-14T08:30:05;30.70;37.10
80958;DHT22;70419;42.700;23.316;2023-06-14T08:32:33;31.20;36.60
80958;DHT22;70419;42.700;23.316;2023-06-14T08:34:59;31.40;35.60
80958;DHT22;70419;42.700;23.316;2023-06-14T08:37:28;31.90;35.80
80958;DHT22;70419;42.700;23.316;2023-06-14T08:39:56;32.20;34.50
80958;DHT22;70419;42.700;23.316;2023-06-14T08:42:24;32.40;33.70
80958;DHT22;70419;42.700;23.316;2023-06-14T08:44:50;33.80;32.50
80958;DHT22;70419;42.700;23.316;2023-06-14T08:47:17;35.40;30.00
80958;DHT22;70419;42.700;23.316;2023-06-14T08:49:46;37.20;27.70
80958;DHT22;70419;42.700;23.316;2023-06-14T08:52:16;38.50;26.80
80958;DHT22;70419;42.700;23.316;2023-06-14T08:54:45;39.60;25.30
80958;DHT22;70419;42.700;23.316;2023-06-14T08:57:14;40.20;24.60
80958;DHT22;70419;42.700;23.316;2023-06-14T08:59:46;40.40;23.80
80958;DHT22;70419;42.700;23.316;2023-06-14T09:02:15;40.30;24.60
80958;DHT22;70419;42.700;23.316;2023-06-14T09:04:43;41.20;23.50
80958;DHT22;70419;42.700;23.316;2023-06-14T09:07:10;42.60;22.80
80958;DHT22;70419;42.700;23.316;2023-06-14T09:09:41;43.40;21.60
80958;DHT22;70419;42.700;23.316;2023-06-14T09:12:10;44.40;20.80
80958;DHT22;70419;42.700;23.316;2023-06-14T09:14:39;45.00;20.30
80958;DHT22;70419;42.700;23.316;2023-06-14T09:17:07;45.10;20.30
80958;DHT22;70419;42.700;23.316;2023-06-14T09:19:34;44.40;20.10
80958;DHT22;70419;42.700;23.316;2023-06-14T09:22:02;42.60;21.10
80958;DHT22;70419;42.700;23.316;2023-06-14T09:24:28;40.40;22.90
80958;DHT22;70419;42.700;23.316;2023-06-14T09:26:54;40.80;22.40
80958;DHT22;70419;42.700;23.316;2023-06-14T09:29:21;40.80;22.50
80958;DHT22;70419;42.700;23.316;2023-06-14T09:31:47;40.70;22.80
80958;DHT22;70419;42.700;23.316;2023-06-14T09:34:16;41.20;22.60
80958;DHT22;70419;42.700;23.316;2023-06-14T09:36:43;40.50;24.10
80958;DHT22;70419;42.700;23.316;2023-06-14T09:39:10;39.40;25.20
80958;DHT22;70419;42.700;23.316;2023-06-14T09:41:54;38.00;25.50
80958;DHT22;70419;42.700;23.316;2023-06-14T09:44:23;36.50;28.40
80958;DHT22;70419;42.700;23.316;2023-06-14T09:46:55;34.40;30.00
80958;DHT22;70419;42.700;23.316;2023-06-14T09:49:21;32.20;34.20
80958;DHT22;70419;42.700;23.316;2023-06-14T09:51:50;31.10;35.80
80958;DHT22;70419;42.700;23.316;2023-06-14T09:54:22;31.20;34.80
80958;DHT22;70419;42.700;23.316;2023-06-14T09:56:51;31.30;35.30
80958;DHT22;70419;42.700;23.316;2023-06-14T09:59:25;32.10;34.40
80958;DHT22;70419;42.700;23.316;2023-06-14T10:01:58;33.80;31.00
80958;DHT22;70419;42.700;23.316;2023-06-14T10:04:27;35.90;28.80
80958;DHT22;70419;42.700;23.316;2023-06-14T10:06:57;36.60;27.30
80958;DHT22;70419;42.700;23.316;2023-06-14T10:09:24;36.40;27.70
80958;DHT22;70419;42.700;23.316;2023-06-14T10:11:51;35.80;28.20
80958;DHT22;70419;42.700;23.316;2023-06-14T10:14:20;35.40;28.30
80958;DHT22;70419;42.700;23.316;2023-06-14T10:17:07;35.20;29.20
80958;DHT22;70419;42.700;23.316;2023-06-14T10:19:41;35.70;29.70
80958;DHT22;70419;42.700;23.316;2023-06-14T10:22:11;36.70;27.20
80958;DHT22;70419;42.700;23.316;2023-06-14T10:24:42;36.50;27.80
80958;DHT22;70419;42.700;23.316;2023-06-14T10:27:09;36.10;27.90
80958;DHT22;70419;42.700;23.316;2023-06-14T10:32:23;35.60;27.80
80958;DHT22;70419;42.700;23.316;2023-06-14T10:35:19;35.10;28.10
80958;DHT22;70419;42.700;23.316;2023-06-14T10:37:48;34.10;28.90
80958;DHT22;70419;42.700;23.316;2023-06-14T10:40:32;33.90;29.50
80958;DHT22;70419;42.700;23.316;2023-06-14T10:43:11;36.40;27.60
80958;DHT22;70419;42.700;23.316;2023-06-14T10:46:13;40.10;24.50
80958;DHT22;70419;42.700;23.316;2023-06-14T10:48:44;44.00;20.70
80958;DHT22;70419;42.700;23.316;2023-06-14T10:51:18;43.40;20.70
80958;DHT22;70419;42.700;23.316;2023-06-14T10:53:51;42.30;21.70
80958;DHT22;70419;42.700;23.316;2023-06-14T10:56:27;41.10;22.50
80958;DHT22;70419;42.700;23.316;2023-06-14T10:58:56;40.20;23.10
80958;DHT22;70419;42.700;23.316;2023-06-14T11:01:37;39.40;23.90
80958;DHT22;70419;42.700;23.316;2023-06-14T11:04:07;39.10;24.00
80958;DHT22;70419;42.700;23.316;2023-06-14T11:06:49;38.40;24.80
80958;DHT22;70419;42.700;23.316;2023-06-14T11:09:45;38.10;25.00
80958;DHT22;70419;42.700;23.316;2023-06-14T11:12:17;37.90;25.00
80958;DHT22;70419;42.700;23.316;2023-06-14T11:14:49;37.50;25.10
80958;DHT22;70419;42.700;23.316;2023-06-14T11:17:15;37.10;25.70
80958;DHT22;70419;42.700;23.316;2023-06-14T11:19:41;36.60;26.10
80958;DHT22;70419;42.700;23.316;2023-06-14T11:22:08;36.10;26.10
80958;DHT22;70419;42.700;23.316;2023-06-14T11:24:36;35.50;27.00
80958;DHT22;70419;42.700;23.316;2023-06-14T11:27:02;35.00;27.70
80958;DHT22;70419;42.700;23.316;2023-06-14T11:29:29;37.20;25.90
80958;DHT22;70419;42.700;23.316;2023-06-14T11:31:58;40.40;23.30
80958;DHT22;70419;42.700;23.316;2023-06-14T11:34:26;43.90;20.50
80958;DHT22;70419;42.700;23.316;2023-06-14T11:36:52;47.40;18.20
80958;DHT22;70419;42.700;23.316;2023-06-14T11:39:24;49.70;16.80
80958;DHT22;70419;42.700;23.316;2023-06-14T11:41:50;51.80;15.20
80958;DHT22;70419;42.700;23.316;2023-06-14T11:44:19;52.50;14.40
80958;DHT22;70419;42.700;23.316;2023-06-14T11:46:45;53.50;13.80
80958;DHT22;70419;42.700;23.316;2023-06-14T11:49:12;54.20;13.40
80958;DHT22;70419;42.700;23.316;2023-06-14T11:51:37;55.00;12.90
80958;DHT22;70419;42.700;23.316;2023-06-14T11:54:06;54.00;13.20
80958;DHT22;70419;42.700;23.316;2023-06-14T11:56:32;51.10;14.60
80958;DHT22;70419;42.700;23.316;2023-06-14T11:58:58;48.40;16.10
80958;DHT22;70419;42.700;23.316;2023-06-14T12:01:24;45.60;17.80
80958;DHT22;70419;42.700;23.316;2023-06-14T12:03:52;43.70;19.20
80958;DHT22;70419;42.700;23.316;2023-06-14T12:06:26;42.30;20.30
80958;DHT22;70419;42.700;23.316;2023-06-14T12:08:58;41.30;20.90
80958;DHT22;70419;42.700;23.316;2023-06-14T12:11:33;42.20;19.90
80958;DHT22;70419;42.700;23.316;2023-06-14T12:13:59;44.50;18.80
80958;DHT22;70419;42.700;23.316;2023-06-14T12:16:36;46.00;17.20
80958;DHT22;70419;42.700;23.316;2023-06-14T12:19:14;45.60;17.40
80958;DHT22;70419;42.700;23.316;2023-06-14T12:21:43;46.30;17.30
80958;DHT22;70419;42.700;23.316;2023-06-14T12:24:13;46.30;17.10
80958;DHT22;70419;42.700;23.316;2023-06-14T12:26:41;47.90;16.30
80958;DHT22;70419;42.700;23.316;2023-06-14T12:29:07;49.10;15.50
80958;DHT22;70419;42.700;23.316;2023-06-14T12:31:34;49.80;15.00
80958;DHT22;70419;42.700;23.316;2023-06-14T12:34:02;47.90;16.00
80958;DHT22;70419;42.700;23.316;2023-06-14T12:36:28;44.70;17.50
80958;DHT22;70419;42.700;23.316;2023-06-14T12:38:54;43.10;18.60
80958;DHT22;70419;42.700;23.316;2023-06-14T12:41:21;41.10;20.10
80958;DHT22;70419;42.700;23.316;2023-06-14T12:43:48;40.80;21.00
80958;DHT22;70419;42.700;23.316;2023-06-14T12:46:13;40.10;21.30
80958;DHT22;70419;42.700;23.316;2023-06-14T12:48:39;39.20;22.20
80958;DHT22;70419;42.700;23.316;2023-06-14T12:51:05;38.20;23.00
80958;DHT22;70419;42.700;23.316;2023-06-14T12:53:31;37.00;24.10
80958;DHT22;70419;42.700;23.316;2023-06-14T12:55:58;35.20;25.90
80958;DHT22;70419;42.700;23.316;2023-06-14T12:58:25;34.30;26.10
80958;DHT22;70419;42.700;23.316;2023-06-14T13:00:51;32.40;28.90
80958;DHT22;70419;42.700;23.316;2023-06-14T13:03:16;31.60;30.00
80958;DHT22;70419;42.700;23.316;2023-06-14T13:05:42;31.40;30.20
80958;DHT22;70419;42.700;23.316;2023-06-14T13:08:11;30.90;31.40
80958;DHT22;70419;42.700;23.316;2023-06-14T13:10:37;30.50;32.20
80958;DHT22;70419;42.700;23.316;2023-06-14T13:13:03;30.40;32.80
80958;DHT22;70419;42.700;23.316;2023-06-14T13:15:30;30.70;31.90
80958;DHT22;70419;42.700;23.316;2023-06-14T13:17:56;31.00;31.30
80958;DHT22;70419;42.700;23.316;2023-06-14T13:20:23;30.90;30.30
80958;DHT22;70419;42.700;23.316;2023-06-14T13:22:48;30.10;32.20
80958;DHT22;70419;42.700;23.316;2023-06-14T13:25:18;30.10;32.40
80958;DHT22;70419;42.700;23.316;2023-06-14T13:27:44;29.40;34.00
80958;DHT22;70419;42.700;23.316;2023-06-14T13:30:10;28.70;37.40
80958;DHT22;70419;42.700;23.316;2023-06-14T13:32:36;27.30;40.80
80958;DHT22;70419;42.700;23.316;2023-06-14T13:35:02;26.50;41.60
80958;DHT22;70419;42.700;23.316;2023-06-14T13:37:29;25.80;43.50
80958;DHT22;70419;42.700;23.316;2023-06-14T13:39:55;25.20;45.80
80958;DHT22;70419;42.700;23.316;2023-06-14T13:42:22;24.50;47.90
80958;DHT22;70419;42.700;23.316;2023-06-14T13:44:48;24.20;51.50
80958;DHT22;70419;42.700;23.316;2023-06-14T13:47:14;23.80;53.50
80958;DHT22;70419;42.700;23.316;2023-06-14T13:49:39;23.20;55.40
80958;DHT22;70419;42.700;23.316;2023-06-14T13:52:08;22.90;57.10
80958;DHT22;70419;42.700;23.316;2023-06-14T13:54:34;22.60;57.80
80958;DHT22;70419;42.700;23.316;2023-06-14T13:57:00;22.00;60.50
80958;DHT22;70419;42.700;23.316;2023-06-14T13:59:27;21.60;63.20
80958;DHT22;70419;42.700;23.316;2023-06-14T14:01:53;21.30;64.50
80958;DHT22;70419;42.700;23.316;2023-06-14T14:04:19;20.90;63.10
80958;DHT22;70419;42.700;23.316;2023-06-14T14:06:45;20.80;65.10
80958;DHT22;70419;42.700;23.316;2023-06-14T14:09:12;20.80;65.30
80958;DHT22;70419;42.700;23.316;2023-06-14T14:11:39;21.00;60.60
80958;DHT22;70419;42.700;23.316;2023-06-14T14:14:07;21.10;61.10
80958;DHT22;70419;42.700;23.316;2023-06-14T14:16:33;21.30;60.20
80958;DHT22;70419;42.700;23.316;2023-06-14T14:18:58;21.50;61.00
80958;DHT22;70419;42.700;23.316;2023-06-14T14:21:24;21.70;59.10
80958;DHT22;70419;42.700;23.316;2023-06-14T14:23:50;21.80;58.80
80958;DHT22;70419;42.700;23.316;2023-06-14T14:26:16;21.80;58.00
80958;DHT22;70419;42.700;23.316;2023-06-14T14:28:46;21.70;58.20
80958;DHT22;70419;42.700;23.316;2023-06-14T14:31:12;21.60;57.30
80958;DHT22;70419;42.700;23.316;2023-06-14T14:33:38;21.80;57.90
80958;DHT22;70419;42.700;23.316;2023-06-14T14:36:04;21.80;57.90
80958;DHT22;70419;42.700;23.316;2023-06-14T14:38:31;22.10;58.30
80958;DHT22;70419;42.700;23.316;2023-06-14T14:40:57;22.50;59.00
80958;DHT22;70419;42.700;23.316;2023-06-14T14:43:23;22.80;58.40
80958;DHT22;70419;42.700;23.316;2023-06-14T14:45:52;23.00;55.70
80958;DHT22;70419;42.700;23.316;2023-06-14T14:48:18;23.20;56.20
80958;DHT22;70419;42.700;23.316;2023-06-14T14:50:50;23.30;54.90
80958;DHT22;70419;42.700;23.316;2023-06-14T14:53:16;23.60;54.30
80958;DHT22;70419;42.700;23.316;2023-06-14T14:55:43;24.00;53.20
80958;DHT22;70419;42.700;23.316;2023-06-14T14:58:09;24.30;52.00
80958;DHT22;70419;42.700;23.316;2023-06-14T15:00:36;24.50;51.90
80958;DHT22;70419;42.700;23.316;2023-06-14T15:03:02;24.60;50.70
80958;DHT22;70419;42.700;23.316;2023-06-14T15:05:28;24.50;51.40
80958;DHT22;70419;42.700;23.316;2023-06-14T15:07:54;24.30;52.30
80958;DHT22;70419;42.700;23.316;2023-06-14T15:10:21;24.20;51.60
80958;DHT22;70419;42.700;23.316;2023-06-14T15:12:47;23.90;52.70
80958;DHT22;70419;42.700;23.316;2023-06-14T15:15:12;23.90;53.00
80958;DHT22;70419;42.700;23.316;2023-06-14T15:17:38;23.80;52.90
80958;DHT22;70419;42.700;23.316;2023-06-14T15:20:05;23.70;54.00
80958;DHT22;70419;42.700;23.316;2023-06-14T15:22:31;23.50;54.30
80958;DHT22;70419;42.700;23.316;2023-06-14T15:24:59;23.40;54.30
80958;DHT22;70419;42.700;23.316;2023-06-14T15:27:25;23.30;55.40
80958;DHT22;70419;42.700;23.316;2023-06-14T15:29:51;23.20;56.00